sensor_id;sensor_type;location;lat;lon;timestamp;P1;durP1;ratioP1;P2;durP2;ratioP2
10667;SDS011;5382;42.136;24.796;2023-02-23T00:01:48;6.72;;;3.15;;
10667;SDS011;5382;42.136;24.796;2023-02-23T00:04:15;11.23;;;3.45;;
10667;SDS011;5382;42.136;24.796;2023-02-23T00:06:43;6.70;;;3.80;;
10667;SDS011;5382;42.136;24.796;2023-02-23T00:09:10;5.05;;;3.55;;
10667;SDS011;5382;42.136;24.796;2023-02-23T00:11:48;6.72;;;3.67;;
10667;SDS011;5382;42.136;24.796;2023-02-23T00:14:15;7.35;;;3.72;;
10667;SDS011;5382;42.136;24.796;2023-02-23T00:16:42;6.90;;;4.05;;
10667;SDS011;5382;42.136;24.796;2023-02-23T00:19:10;5.68;;;3.40;;
10667;SDS011;5382;42.136;24.796;2023-02-23T00:21:38;7.15;;;3.60;;
10667;SDS011;5382;42.136;24.796;2023-02-23T00:24:07;6.32;;;3.60;;
10667;SDS011;5382;42.136;24.796;2023-02-23T00:26:36;3.95;;;2.97;;
10667;SDS011;5382;42.136;24.796;2023-02-23T00:29:10;6.03;;;4.00;;
10667;SDS011;5382;42.136;24.796;2023-02-23T00:31:41;4.10;;;2.88;;
10667;SDS011;5382;42.136;24.796;2023-02-23T00:34:08;6.15;;;3.58;;
10667;SDS011;5382;42.136;24.796;2023-02-23T00:36:37;6.85;;;3.95;;
10667;SDS011;5382;42.136;24.796;2023-02-23T00:39:06;4.80;;;3.42;;
10667;SDS011;5382;42.136;24.796;2023-02-23T00:41:43;9.00;;;3.80;;
10667;SDS011;5382;42.136;24.796;2023-02-23T00:44:12;6.43;;;3.70;;
10667;SDS011;5382;42.136;24.796;2023-02-23T00:46:40;8.52;;;3.90;;
10667;SDS011;5382;42.136;24.796;2023-02-23T00:49:08;4.40;;;3.30;;
10667;SDS011;5382;42.136;24.796;2023-02-23T00:51:37;5.13;;;3.95;;
10667;SDS011;5382;42.136;24.796;2023-02-23T00:54:04;6.45;;;3.78;;
10667;SDS011;5382;42.136;24.796;2023-02-23T00:56:31;4.50;;;3.08;;
10667;SDS011;5382;42.136;24.796;2023-02-23T00:58:58;4.85;;;3.08;;
10667;SDS011;5382;42.136;24.796;2023-02-23T01:01:27;8.88;;;3.85;;
10667;SDS011;5382;42.136;24.796;2023-02-23T01:03:54;5.35;;;3.83;;
10667;SDS011;5382;42.136;24.796;2023-02-23T01:06:21;5.35;;;3.10;;
10667;SDS011;5382;42.136;24.796;2023-02-23T01:08:49;8.38;;;4.18;;
10667;SDS011;5382;42.136;24.796;2023-02-23T01:11:21;8.95;;;6.45;;
10667;SDS011;5382;42.136;24.796;2023-02-23T01:13:52;4.88;;;3.92;;
10667;SDS011;5382;42.136;24.796;2023-02-23T01:16:22;6.47;;;3.80;;
10667;SDS011;5382;42.136;24.796;2023-02-23T01:18:54;4.80;;;3.65;;
10667;SDS011;5382;42.136;24.796;2023-02-23T01:21:23;6.93;;;3.35;;
10667;SDS011;5382;42.136;24.796;2023-02-23T01:23:52;4.60;;;3.63;;
10667;SDS011;5382;42.136;24.796;2023-02-23T01:26:20;7.90;;;3.75;;
10667;SDS011;5382;42.136;24.796;2023-02-23T01:28:51;5.95;;;3.38;;
10667;SDS011;5382;42.136;24.796;2023-02-23T01:31:19;6.55;;;3.53;;
10667;SDS011;5382;42.136;24.796;2023-02-23T01:33:46;5.13;;;3.47;;
10667;SDS011;5382;42.136;24.796;2023-02-23T01:36:15;6.45;;;3.30;;
10667;SDS011;5382;42.136;24.796;2023-02-23T01:38:42;6.20;;;3.17;;
10667;SDS011;5382;42.136;24.796;2023-02-23T01:41:09;4.40;;;3.22;;
10667;SDS011;5382;42.136;24.796;2023-02-23T01:46:23;5.53;;;3.47;;
10667;SDS011;5382;42.136;24.796;2023-02-23T01:48:49;4.70;;;2.97;;
10667;SDS011;5382;42.136;24.796;2023-02-23T01:51:22;6.55;;;3.10;;
10667;SDS011;5382;42.136;24.796;2023-02-23T01:53:53;9.60;;;3.42;;
10667;SDS011;5382;42.136;24.796;2023-02-23T01:56:24;5.50;;;3.08;;
10667;SDS011;5382;42.136;24.796;2023-02-23T01:58:55;4.28;;;2.97;;
10667;SDS011;5382;42.136;24.796;2023-02-23T02:01:24;5.22;;;3.55;;
10667;SDS011;5382;42.136;24.796;2023-02-23T02:03:54;4.30;;;3.47;;
10667;SDS011;5382;42.136;24.796;2023-02-23T02:06:25;5.53;;;3.13;;
10667;SDS011;5382;42.136;24.796;2023-02-23T02:08:55;3.55;;;2.70;;
10667;SDS011;5382;42.136;24.796;2023-02-23T02:11:30;3.83;;;2.70;;
10667;SDS011;5382;42.136;24.796;2023-02-23T02:14:00;3.45;;;3.15;;
10667;SDS011;5382;42.136;24.796;2023-02-23T02:16:39;4.35;;;2.85;;
10667;SDS011;5382;42.136;24.796;2023-02-23T02:19:24;5.90;;;2.60;;
10667;SDS011;5382;42.136;24.796;2023-02-23T02:22:20;4.53;;;2.83;;
10667;SDS011;5382;42.136;24.796;2023-02-23T02:28:26;4.72;;;3.42;;
10667;SDS011;5382;42.136;24.796;2023-02-23T02:31:09;5.80;;;3.28;;
10667;SDS011;5382;42.136;24.796;2023-02-23T02:37:09;4.28;;;2.65;;
10667;SDS011;5382;42.136;24.796;2023-02-23T02:39:45;4.70;;;2.97;;
10667;SDS011;5382;42.136;24.796;2023-02-23T02:42:39;4.90;;;3.25;;
10667;SDS011;5382;42.136;24.796;2023-02-23T02:45:20;5.30;;;2.67;;
10667;SDS011;5382;42.136;24.796;2023-02-23T02:47:53;4.88;;;2.92;;
10667;SDS011;5382;42.136;24.796;2023-02-23T02:50:26;6.40;;;2.90;;
10667;SDS011;5382;42.136;24.796;2023-02-23T02:53:00;3.88;;;3.05;;
10667;SDS011;5382;42.136;24.796;2023-02-23T02:55:32;8.88;;;3.22;;
10667;SDS011;5382;42.136;24.796;2023-02-23T02:58:03;4.88;;;2.90;;
10667;SDS011;5382;42.136;24.796;2023-02-23T03:00:35;4.38;;;3.67;;
10667;SDS011;5382;42.136;24.796;2023-02-23T03:03:28;10.32;;;3.13;;
10667;SDS011;5382;42.136;24.796;2023-02-23T03:06:15;4.50;;;3.00;;
10667;SDS011;5382;42.136;24.796;2023-02-23T03:09:02;4.80;;;2.92;;
10667;SDS011;5382;42.136;24.796;2023-02-23T03:12:00;6.88;;;2.80;;
10667;SDS011;5382;42.136;24.796;2023-02-23T03:14:53;7.40;;;3.83;;
10667;SDS011;5382;42.136;24.796;2023-02-23T03:17:44;4.20;;;2.92;;
10667;SDS011;5382;42.136;24.796;2023-02-23T03:20:35;5.85;;;3.08;;
10667;SDS011;5382;42.136;24.796;2023-02-23T03:23:26;9.45;;;3.30;;
10667;SDS011;5382;42.136;24.796;2023-02-23T03:26:20;4.38;;;3.05;;
10667;SDS011;5382;42.136;24.796;2023-02-23T03:29:11;6.65;;;3.70;;
10667;SDS011;5382;42.136;24.796;2023-02-23T03:32:02;5.63;;;3.28;;
10667;SDS011;5382;42.136;24.796;2023-02-23T03:34:54;11.40;;;4.78;;
10667;SDS011;5382;42.136;24.796;2023-02-23T03:37:45;7.68;;;3.53;;
10667;SDS011;5382;42.136;24.796;2023-02-23T03:40:36;4.93;;;3.17;;
10667;SDS011;5382;42.136;24.796;2023-02-23T03:43:26;4.53;;;3.47;;
10667;SDS011;5382;42.136;24.796;2023-02-23T03:46:14;4.43;;;2.80;;
10667;SDS011;5382;42.136;24.796;2023-02-23T03:49:02;5.43;;;3.67;;
10667;SDS011;5382;42.136;24.796;2023-02-23T03:51:51;7.40;;;3.85;;
10667;SDS011;5382;42.136;24.796;2023-02-23T03:54:40;6.78;;;3.90;;
10667;SDS011;5382;42.136;24.796;2023-02-23T03:57:28;7.93;;;3.80;;
10667;SDS011;5382;42.136;24.796;2023-02-23T04:00:20;6.43;;;3.97;;
10667;SDS011;5382;42.136;24.796;2023-02-23T04:03:08;6.63;;;4.00;;
10667;SDS011;5382;42.136;24.796;2023-02-23T04:05:57;6.85;;;3.88;;
10667;SDS011;5382;42.136;24.796;2023-02-23T04:08:42;4.22;;;3.28;;
10667;SDS011;5382;42.136;24.796;2023-02-23T04:11:26;4.85;;;3.85;;
10667;SDS011;5382;42.136;24.796;2023-02-23T04:14:16;7.90;;;4.07;;
10667;SDS011;5382;42.136;24.796;2023-02-23T04:16:47;7.25;;;4.18;;
10667;SDS011;5382;42.136;24.796;2023-02-23T04:19:13;6.82;;;3.35;;
10667;SDS011;5382;42.136;24.796;2023-02-23T04:21:40;5.80;;;3.47;;
10667;SDS011;5382;42.136;24.796;2023-02-23T04:24:07;8.77;;;4.40;;
10667;SDS011;5382;42.136;24.796;2023-02-23T04:26:35;7.78;;;4.43;;
10667;SDS011;5382;42.136;24.796;2023-02-23T04:29:02;6.57;;;4.63;;
10667;SDS011;5382;42.136;24.796;2023-02-23T04:31:29;5.50;;;4.03;;
10667;SDS011;5382;42.136;24.796;2023-02-23T04:33:57;6.07;;;4.50;;
10667;SDS011;5382;42.136;24.796;2023-02-23T04:36:24;14.32;;;4.75;;
10667;SDS011;5382;42.136;24.796;2023-02-23T04:38:51;9.38;;;5.00;;
10667;SDS011;5382;42.136;24.796;2023-02-23T04:41:17;7.28;;;4.82;;
10667;SDS011;5382;42.136;24.796;2023-02-23T04:43:44;8.23;;;5.45;;
10667;SDS011;5382;42.136;24.796;2023-02-23T04:46:11;6.28;;;4.78;;
10667;SDS011;5382;42.136;24.796;2023-02-23T04:48:38;7.43;;;5.15;;
10667;SDS011;5382;42.136;24.796;2023-02-23T04:51:06;8.15;;;4.90;;
10667;SDS011;5382;42.136;24.796;2023-02-23T04:53:33;10.10;;;5.68;;
10667;SDS011;5382;42.136;24.796;2023-02-23T04:56:00;8.70;;;6.00;;
10667;SDS011;5382;42.136;24.796;2023-02-23T04:58:28;9.30;;;5.80;;
10667;SDS011;5382;42.136;24.796;2023-02-23T05:00:56;9.13;;;5.45;;
10667;SDS011;5382;42.136;24.796;2023-02-23T05:03:29;10.55;;;5.53;;
10667;SDS011;5382;42.136;24.796;2023-02-23T05:05:56;10.40;;;5.18;;
10667;SDS011;5382;42.136;24.796;2023-02-23T05:08:24;20.85;;;10.75;;
10667;SDS011;5382;42.136;24.796;2023-02-23T05:10:51;20.77;;;8.27;;
10667;SDS011;5382;42.136;24.796;2023-02-23T05:13:18;8.85;;;5.70;;
10667;SDS011;5382;42.136;24.796;2023-02-23T05:15:44;12.25;;;6.68;;
10667;SDS011;5382;42.136;24.796;2023-02-23T05:18:11;11.13;;;6.85;;
10667;SDS011;5382;42.136;24.796;2023-02-23T05:20:40;15.18;;;6.13;;
10667;SDS011;5382;42.136;24.796;2023-02-23T05:23:09;10.38;;;5.97;;
10667;SDS011;5382;42.136;24.796;2023-02-23T05:25:37;8.82;;;5.32;;
10667;SDS011;5382;42.136;24.796;2023-02-23T05:28:04;16.15;;;6.35;;
10667;SDS011;5382;42.136;24.796;2023-02-23T05:30:31;12.98;;;6.90;;
10667;SDS011;5382;42.136;24.796;2023-02-23T05:32:58;10.70;;;5.75;;
10667;SDS011;5382;42.136;24.796;2023-02-23T05:35:25;8.60;;;5.95;;
10667;SDS011;5382;42.136;24.796;2023-02-23T05:37:52;14.82;;;7.15;;
10667;SDS011;5382;42.136;24.796;2023-02-23T05:40:18;12.30;;;6.35;;
10667;SDS011;5382;42.136;24.796;2023-02-23T05:42:46;21.70;;;6.28;;
10667;SDS011;5382;42.136;24.796;2023-02-23T05:45:13;13.00;;;6.63;;
10667;SDS011;5382;42.136;24.796;2023-02-23T05:47:40;22.23;;;7.43;;
10667;SDS011;5382;42.136;24.796;2023-02-23T05:50:08;10.00;;;6.25;;
10667;SDS011;5382;42.136;24.796;2023-02-23T05:52:36;13.48;;;6.40;;
10667;SDS011;5382;42.136;24.796;2023-02-23T05:55:06;9.63;;;6.00;;
10667;SDS011;5382;42.136;24.796;2023-02-23T05:57:34;9.45;;;5.70;;
10667;SDS011;5382;42.136;24.796;2023-02-23T06:00:03;10.32;;;5.03;;
10667;SDS011;5382;42.136;24.796;2023-02-23T06:02:31;7.22;;;5.90;;
10667;SDS011;5382;42.136;24.796;2023-02-23T06:04:58;10.13;;;5.85;;
10667;SDS011;5382;42.136;24.796;2023-02-23T06:07:25;9.25;;;5.95;;
10667;SDS011;5382;42.136;24.796;2023-02-23T06:09:52;12.57;;;4.95;;
10667;SDS011;5382;42.136;24.796;2023-02-23T06:12:18;13.27;;;5.47;;
10667;SDS011;5382;42.136;24.796;2023-02-23T06:14:45;7.68;;;4.88;;
10667;SDS011;5382;42.136;24.796;2023-02-23T06:17:13;8.85;;;4.97;;
10667;SDS011;5382;42.136;24.796;2023-02-23T06:19:40;10.45;;;5.00;;
10667;SDS011;5382;42.136;24.796;2023-02-23T06:22:07;6.95;;;4.57;;
10667;SDS011;5382;42.136;24.796;2023-02-23T06:24:34;9.32;;;4.68;;
10667;SDS011;5382;42.136;24.796;2023-02-23T06:27:01;7.70;;;5.20;;
10667;SDS011;5382;42.136;24.796;2023-02-23T06:29:28;9.57;;;5.13;;
10667;SDS011;5382;42.136;24.796;2023-02-23T06:31:55;6.45;;;4.35;;
10667;SDS011;5382;42.136;24.796;2023-02-23T06:34:23;12.45;;;5.55;;
10667;SDS011;5382;42.136;24.796;2023-02-23T06:36:50;8.80;;;4.78;;
10667;SDS011;5382;42.136;24.796;2023-02-23T06:39:17;7.22;;;5.03;;
10667;SDS011;5382;42.136;24.796;2023-02-23T06:41:43;10.15;;;5.47;;
10667;SDS011;5382;42.136;24.796;2023-02-23T06:44:10;6.60;;;4.50;;
10667;SDS011;5382;42.136;24.796;2023-02-23T06:46:37;7.97;;;5.20;;
10667;SDS011;5382;42.136;24.796;2023-02-23T06:49:04;16.73;;;4.82;;
10667;SDS011;5382;42.136;24.796;2023-02-23T06:51:32;14.48;;;4.68;;
10667;SDS011;5382;42.136;24.796;2023-02-23T06:53:59;7.03;;;5.03;;
10667;SDS011;5382;42.136;24.796;2023-02-23T06:56:25;10.60;;;4.80;;
10667;SDS011;5382;42.136;24.796;2023-02-23T06:58:52;12.07;;;4.30;;
10667;SDS011;5382;42.136;24.796;2023-02-23T07:01:19;6.25;;;4.10;;
10667;SDS011;5382;42.136;24.796;2023-02-23T07:03:46;7.38;;;3.92;;
10667;SDS011;5382;42.136;24.796;2023-02-23T07:06:13;9.80;;;4.10;;
10667;SDS011;5382;42.136;24.796;2023-02-23T07:08:41;7.40;;;4.38;;
10667;SDS011;5382;42.136;24.796;2023-02-23T07:11:09;6.72;;;4.63;;
10667;SDS011;5382;42.136;24.796;2023-02-23T07:13:37;9.73;;;5.47;;
10667;SDS011;5382;42.136;24.796;2023-02-23T07:16:04;7.90;;;4.72;;
10667;SDS011;5382;42.136;24.796;2023-02-23T07:18:31;7.10;;;4.05;;
10667;SDS011;5382;42.136;24.796;2023-02-23T07:20:58;4.40;;;3.58;;
10667;SDS011;5382;42.136;24.796;2023-02-23T07:23:25;7.18;;;4.40;;
10667;SDS011;5382;42.136;24.796;2023-02-23T07:25:54;7.22;;;4.40;;
10667;SDS011;5382;42.136;24.796;2023-02-23T07:28:24;4.93;;;4.15;;
10667;SDS011;5382;42.136;24.796;2023-02-23T07:30:54;8.32;;;3.92;;
10667;SDS011;5382;42.136;24.796;2023-02-23T07:33:21;13.02;;;4.57;;
10667;SDS011;5382;42.136;24.796;2023-02-23T07:35:48;6.57;;;4.63;;
10667;SDS011;5382;42.136;24.796;2023-02-23T07:38:15;13.30;;;4.25;;
10667;SDS011;5382;42.136;24.796;2023-02-23T07:40:41;7.25;;;4.50;;
10667;SDS011;5382;42.136;24.796;2023-02-23T07:43:10;6.47;;;4.05;;
10667;SDS011;5382;42.136;24.796;2023-02-23T07:45:36;7.30;;;3.97;;
10667;SDS011;5382;42.136;24.796;2023-02-23T07:48:03;5.93;;;3.47;;
10667;SDS011;5382;42.136;24.796;2023-02-23T07:50:30;8.98;;;4.28;;
10667;SDS011;5382;42.136;24.796;2023-02-23T07:52:57;6.55;;;3.90;;
10667;SDS011;5382;42.136;24.796;2023-02-23T07:55:24;5.13;;;3.90;;
10667;SDS011;5382;42.136;24.796;2023-02-23T07:57:51;4.72;;;3.65;;
10667;SDS011;5382;42.136;24.796;2023-02-23T08:00:20;5.53;;;3.83;;
10667;SDS011;5382;42.136;24.796;2023-02-23T08:02:49;4.43;;;3.28;;
10667;SDS011;5382;42.136;24.796;2023-02-23T08:05:18;4.00;;;2.45;;
10667;SDS011;5382;42.136;24.796;2023-02-23T08:07:45;5.22;;;2.78;;
10667;SDS011;5382;42.136;24.796;2023-02-23T08:10:12;9.50;;;3.65;;
10667;SDS011;5382;42.136;24.796;2023-02-23T08:12:38;5.43;;;3.38;;
10667;SDS011;5382;42.136;24.796;2023-02-23T08:15:05;7.88;;;3.28;;
10667;SDS011;5382;42.136;24.796;2023-02-23T08:17:34;4.97;;;3.17;;
10667;SDS011;5382;42.136;24.796;2023-02-23T08:20:02;3.97;;;3.13;;
10667;SDS011;5382;42.136;24.796;2023-02-23T08:22:30;8.10;;;2.88;;
10667;SDS011;5382;42.136;24.796;2023-02-23T08:24:57;6.40;;;2.85;;
10667;SDS011;5382;42.136;24.796;2023-02-23T08:27:24;9.30;;;3.08;;
10667;SDS011;5382;42.136;24.796;2023-02-23T08:29:53;4.57;;;2.63;;
10667;SDS011;5382;42.136;24.796;2023-02-23T08:32:21;3.90;;;2.85;;
10667;SDS011;5382;42.136;24.796;2023-02-23T08:34:49;4.80;;;2.85;;
10667;SDS011;5382;42.136;24.796;2023-02-23T08:37:16;6.18;;;3.00;;
10667;SDS011;5382;42.136;24.796;2023-02-23T08:39:42;6.97;;;3.70;;
10667;SDS011;5382;42.136;24.796;2023-02-23T08:42:09;4.38;;;3.05;;
10667;SDS011;5382;42.136;24.796;2023-02-23T08:44:36;6.97;;;3.42;;
10667;SDS011;5382;42.136;24.796;2023-02-23T08:47:03;5.03;;;2.47;;
10667;SDS011;5382;42.136;24.796;2023-02-23T08:49:30;6.13;;;3.47;;
10667;SDS011;5382;42.136;24.796;2023-02-23T08:51:59;4.95;;;3.17;;
10667;SDS011;5382;42.136;24.796;2023-02-23T08:54:25;8.25;;;3.95;;
10667;SDS011;5382;42.136;24.796;2023-02-23T08:56:54;7.93;;;3.55;;
10667;SDS011;5382;42.136;24.796;2023-02-23T08:59:21;7.47;;;3.53;;
10667;SDS011;5382;42.136;24.796;2023-02-23T09:01:47;4.63;;;3.30;;
10667;SDS011;5382;42.136;24.796;2023-02-23T09:04:14;8.48;;;2.90;;
10667;SDS011;5382;42.136;24.796;2023-02-23T09:06:42;4.53;;;2.20;;
10667;SDS011;5382;42.136;24.796;2023-02-23T09:09:12;6.45;;;3.47;;
10667;SDS011;5382;42.136;24.796;2023-02-23T09:11:39;6.53;;;3.15;;
10667;SDS011;5382;42.136;24.796;2023-02-23T09:14:05;5.55;;;3.17;;
10667;SDS011;5382;42.136;24.796;2023-02-23T09:16:32;4.40;;;2.88;;
10667;SDS011;5382;42.136;24.796;2023-02-23T09:18:59;9.48;;;3.33;;
10667;SDS011;5382;42.136;24.796;2023-02-23T09:21:26;6.15;;;3.10;;
10667;SDS011;5382;42.136;24.796;2023-02-23T09:23:55;9.60;;;3.38;;
10667;SDS011;5382;42.136;24.796;2023-02-23T09:26:24;8.20;;;2.97;;
10667;SDS011;5382;42.136;24.796;2023-02-23T09:28:53;11.50;;;3.70;;
10667;SDS011;5382;42.136;24.796;2023-02-23T09:31:21;8.23;;;3.53;;
10667;SDS011;5382;42.136;24.796;2023-02-23T09:33:49;5.70;;;3.25;;
10667;SDS011;5382;42.136;24.796;2023-02-23T09:36:17;7.18;;;3.70;;
10667;SDS011;5382;42.136;24.796;2023-02-23T09:38:46;8.90;;;3.47;;
10667;SDS011;5382;42.136;24.796;2023-02-23T09:44:24;5.90;;;3.30;;
10667;SDS011;5382;42.136;24.796;2023-02-23T09:47:03;21.27;;;5.00;;
10667;SDS011;5382;42.136;24.796;2023-02-23T09:49:37;5.18;;;3.63;;
10667;SDS011;5382;42.136;24.796;2023-02-23T09:52:09;8.68;;;3.17;;
10667;SDS011;5382;42.136;24.796;2023-02-23T09:54:43;4.93;;;2.90;;
10667;SDS011;5382;42.136;24.796;2023-02-23T09:57:13;18.20;;;4.43;;
10667;SDS011;5382;42.136;24.796;2023-02-23T09:59:43;8.93;;;3.33;;
10667;SDS011;5382;42.136;24.796;2023-02-23T10:02:15;6.00;;;3.75;;
10667;SDS011;5382;42.136;24.796;2023-02-23T10:04:48;7.43;;;3.55;;
10667;SDS011;5382;42.136;24.796;2023-02-23T10:07:19;8.13;;;2.75;;
10667;SDS011;5382;42.136;24.796;2023-02-23T10:09:53;6.63;;;3.20;;
10667;SDS011;5382;42.136;24.796;2023-02-23T10:12:31;8.73;;;4.30;;
10667;SDS011;5382;42.136;24.796;2023-02-23T10:15:11;7.80;;;3.38;;
10667;SDS011;5382;42.136;24.796;2023-02-23T10:17:46;7.00;;;3.20;;
10667;SDS011;5382;42.136;24.796;2023-02-23T10:20:24;7.15;;;3.50;;
10667;SDS011;5382;42.136;24.796;2023-02-23T10:23:00;4.20;;;3.63;;
10667;SDS011;5382;42.136;24.796;2023-02-23T10:25:33;10.05;;;3.85;;
10667;SDS011;5382;42.136;24.796;2023-02-23T10:28:04;8.70;;;3.78;;
10667;SDS011;5382;42.136;24.796;2023-02-23T10:30:37;5.35;;;3.65;;
10667;SDS011;5382;42.136;24.796;2023-02-23T10:33:13;6.07;;;3.55;;
10667;SDS011;5382;42.136;24.796;2023-02-23T10:35:43;7.03;;;3.90;;
10667;SDS011;5382;42.136;24.796;2023-02-23T10:38:20;4.78;;;3.50;;
10667;SDS011;5382;42.136;24.796;2023-02-23T10:40:48;20.98;;;4.20;;
10667;SDS011;5382;42.136;24.796;2023-02-23T10:43:20;13.18;;;3.70;;
10667;SDS011;5382;42.136;24.796;2023-02-23T10:45:47;7.72;;;3.95;;
10667;SDS011;5382;42.136;24.796;2023-02-23T10:48:17;6.47;;;3.90;;
10667;SDS011;5382;42.136;24.796;2023-02-23T10:50:47;23.20;;;4.68;;
10667;SDS011;5382;42.136;24.796;2023-02-23T10:53:16;6.82;;;4.35;;
10667;SDS011;5382;42.136;24.796;2023-02-23T10:55:58;8.07;;;4.72;;
10667;SDS011;5382;42.136;24.796;2023-02-23T10:58:29;5.70;;;4.38;;
10667;SDS011;5382;42.136;24.796;2023-02-23T11:00:57;5.93;;;4.18;;
10667;SDS011;5382;42.136;24.796;2023-02-23T11:03:27;7.00;;;3.65;;
10667;SDS011;5382;42.136;24.796;2023-02-23T11:05:57;6.28;;;3.78;;
10667;SDS011;5382;42.136;24.796;2023-02-23T11:08:25;11.13;;;3.80;;
10667;SDS011;5382;42.136;24.796;2023-02-23T11:10:55;6.57;;;4.13;;
10667;SDS011;5382;42.136;24.796;2023-02-23T11:13:25;5.95;;;3.90;;
10667;SDS011;5382;42.136;24.796;2023-02-23T11:15:58;7.20;;;3.95;;
10667;SDS011;5382;42.136;24.796;2023-02-23T11:18:28;10.02;;;4.13;;
10667;SDS011;5382;42.136;24.796;2023-02-23T11:20:55;18.05;;;3.90;;
10667;SDS011;5382;42.136;24.796;2023-02-23T11:23:23;7.68;;;3.85;;
10667;SDS011;5382;42.136;24.796;2023-02-23T11:25:53;6.30;;;3.53;;
10667;SDS011;5382;42.136;24.796;2023-02-23T11:28:26;6.25;;;3.08;;
10667;SDS011;5382;42.136;24.796;2023-02-23T11:30:56;9.82;;;3.42;;
10667;SDS011;5382;42.136;24.796;2023-02-23T11:33:29;7.85;;;3.15;;
10667;SDS011;5382;42.136;24.796;2023-02-23T11:36:11;6.25;;;3.40;;
10667;SDS011;5382;42.136;24.796;2023-02-23T11:38:41;5.25;;;3.70;;
10667;SDS011;5382;42.136;24.796;2023-02-23T11:41:16;6.05;;;3.38;;
10667;SDS011;5382;42.136;24.796;2023-02-23T11:43:46;40.70;;;5.63;;
10667;SDS011;5382;42.136;24.796;2023-02-23T11:46:15;8.15;;;3.50;;
10667;SDS011;5382;42.136;24.796;2023-02-23T11:48:47;8.55;;;4.03;;
10667;SDS011;5382;42.136;24.796;2023-02-23T11:51:21;8.80;;;3.67;;
10667;SDS011;5382;42.136;24.796;2023-02-23T11:53:50;15.10;;;4.28;;
10667;SDS011;5382;42.136;24.796;2023-02-23T11:56:18;33.75;;;4.85;;
10667;SDS011;5382;42.136;24.796;2023-02-23T11:58:47;7.22;;;4.38;;
10667;SDS011;5382;42.136;24.796;2023-02-23T12:01:21;7.22;;;4.10;;
10667;SDS011;5382;42.136;24.796;2023-02-23T12:03:50;6.65;;;4.35;;
10667;SDS011;5382;42.136;24.796;2023-02-23T12:06:25;6.80;;;4.22;;
10667;SDS011;5382;42.136;24.796;2023-02-23T12:08:56;8.07;;;4.38;;
10667;SDS011;5382;42.136;24.796;2023-02-23T12:11:28;12.25;;;5.25;;
10667;SDS011;5382;42.136;24.796;2023-02-23T12:14:01;6.30;;;5.10;;
10667;SDS011;5382;42.136;24.796;2023-02-23T12:16:34;7.22;;;5.47;;
10667;SDS011;5382;42.136;24.796;2023-02-23T12:19:08;7.97;;;6.40;;
10667;SDS011;5382;42.136;24.796;2023-02-23T12:21:45;9.13;;;7.20;;
10667;SDS011;5382;42.136;24.796;2023-02-23T12:24:17;8.88;;;7.15;;
10667;SDS011;5382;42.136;24.796;2023-02-23T12:26:54;10.48;;;7.72;;
10667;SDS011;5382;42.136;24.796;2023-02-23T12:29:26;10.05;;;7.38;;
10667;SDS011;5382;42.136;24.796;2023-02-23T12:31:58;10.48;;;8.38;;
10667;SDS011;5382;42.136;24.796;2023-02-23T12:34:29;12.10;;;8.70;;
10667;SDS011;5382;42.136;24.796;2023-02-23T12:37:03;11.60;;;8.05;;
10667;SDS011;5382;42.136;24.796;2023-02-23T12:39:42;13.93;;;9.43;;
10667;SDS011;5382;42.136;24.796;2023-02-23T12:42:14;12.30;;;9.10;;
10667;SDS011;5382;42.136;24.796;2023-02-23T12:44:45;12.13;;;8.93;;
10667;SDS011;5382;42.136;24.796;2023-02-23T12:47:21;13.85;;;9.82;;
10667;SDS011;5382;42.136;24.796;2023-02-23T12:49:55;26.08;;;10.65;;
10667;SDS011;5382;42.136;24.796;2023-02-23T12:52:37;15.70;;;10.43;;
10667;SDS011;5382;42.136;24.796;2023-02-23T12:55:11;59.50;;;12.35;;
10667;SDS011;5382;42.136;24.796;2023-02-23T12:57:39;19.55;;;11.27;;
10667;SDS011;5382;42.136;24.796;2023-02-23T13:00:32;25.58;;;12.20;;
10667;SDS011;5382;42.136;24.796;2023-02-23T13:06:09;14.07;;;10.20;;
10667;SDS011;5382;42.136;24.796;2023-02-23T13:11:45;16.52;;;10.15;;
10667;SDS011;5382;42.136;24.796;2023-02-23T13:14:24;24.08;;;10.18;;
10667;SDS011;5382;42.136;24.796;2023-02-23T13:17:01;20.30;;;11.55;;
10667;SDS011;5382;42.136;24.796;2023-02-23T13:19:38;36.53;;;12.57;;
10667;SDS011;5382;42.136;24.796;2023-02-23T13:22:20;19.48;;;10.30;;
10667;SDS011;5382;42.136;24.796;2023-02-23T13:24:55;20.38;;;10.00;;
10667;SDS011;5382;42.136;24.796;2023-02-23T13:27:26;30.90;;;10.30;;
10667;SDS011;5382;42.136;24.796;2023-02-23T13:29:59;17.83;;;10.10;;
10667;SDS011;5382;42.136;24.796;2023-02-23T13:32:28;11.48;;;9.55;;
10667;SDS011;5382;42.136;24.796;2023-02-23T13:34:58;17.75;;;9.77;;
10667;SDS011;5382;42.136;24.796;2023-02-23T13:37:28;16.20;;;11.05;;
10667;SDS011;5382;42.136;24.796;2023-02-23T13:40:01;15.25;;;11.23;;
10667;SDS011;5382;42.136;24.796;2023-02-23T13:42:47;15.15;;;10.73;;
10667;SDS011;5382;42.136;24.796;2023-02-23T13:45:27;16.95;;;11.45;;
10667;SDS011;5382;42.136;24.796;2023-02-23T13:48:02;16.50;;;10.80;;
10667;SDS011;5382;42.136;24.796;2023-02-23T13:50:41;14.90;;;11.07;;
10667;SDS011;5382;42.136;24.796;2023-02-23T13:53:33;23.50;;;12.35;;
10667;SDS011;5382;42.136;24.796;2023-02-23T13:56:05;15.82;;;10.88;;
10667;SDS011;5382;42.136;24.796;2023-02-23T13:58:34;15.15;;;11.00;;
10667;SDS011;5382;42.136;24.796;2023-02-23T14:01:03;15.52;;;11.00;;
10667;SDS011;5382;42.136;24.796;2023-02-23T14:03:35;18.30;;;11.40;;
10667;SDS011;5382;42.136;24.796;2023-02-23T14:06:09;16.63;;;11.07;;
10667;SDS011;5382;42.136;24.796;2023-02-23T14:08:40;15.25;;;11.52;;
10667;SDS011;5382;42.136;24.796;2023-02-23T14:11:13;21.45;;;11.95;;
10667;SDS011;5382;42.136;24.796;2023-02-23T14:13:57;17.95;;;11.75;;
10667;SDS011;5382;42.136;24.796;2023-02-23T14:16:25;22.77;;;12.57;;
10667;SDS011;5382;42.136;24.796;2023-02-23T14:18:54;16.27;;;11.18;;
10667;SDS011;5382;42.136;24.796;2023-02-23T14:21:30;18.05;;;12.68;;
10667;SDS011;5382;42.136;24.796;2023-02-23T14:24:03;23.08;;;12.05;;
10667;SDS011;5382;42.136;24.796;2023-02-23T14:26:39;13.63;;;11.25;;
10667;SDS011;5382;42.136;24.796;2023-02-23T14:29:10;13.98;;;11.40;;
10667;SDS011;5382;42.136;24.796;2023-02-23T14:31:55;16.88;;;10.98;;
10667;SDS011;5382;42.136;24.796;2023-02-23T14:34:52;16.30;;;11.90;;
10667;SDS011;5382;42.136;24.796;2023-02-23T14:37:25;18.20;;;11.98;;
10667;SDS011;5382;42.136;24.796;2023-02-23T14:39:59;16.85;;;11.70;;
10667;SDS011;5382;42.136;24.796;2023-02-23T14:42:29;18.58;;;12.10;;
10667;SDS011;5382;42.136;24.796;2023-02-23T14:44:57;19.30;;;12.10;;
10667;SDS011;5382;42.136;24.796;2023-02-23T14:47:39;15.90;;;11.95;;
10667;SDS011;5382;42.136;24.796;2023-02-23T14:50:11;20.35;;;10.07;;
10667;SDS011;5382;42.136;24.796;2023-02-23T14:52:51;16.85;;;9.63;;
10667;SDS011;5382;42.136;24.796;2023-02-23T14:55:22;18.90;;;13.98;;
10667;SDS011;5382;42.136;24.796;2023-02-23T14:57:51;18.40;;;12.23;;
10667;SDS011;5382;42.136;24.796;2023-02-23T15:00:20;22.95;;;13.27;;
10667;SDS011;5382;42.136;24.796;2023-02-23T15:02:52;12.70;;;10.07;;
10667;SDS011;5382;42.136;24.796;2023-02-23T15:05:22;24.27;;;13.07;;
10667;SDS011;5382;42.136;24.796;2023-02-23T15:07:50;17.77;;;13.40;;
10667;SDS011;5382;42.136;24.796;2023-02-23T15:10:19;19.17;;;12.43;;
10667;SDS011;5382;42.136;24.796;2023-02-23T15:12:51;42.63;;;12.30;;
10667;SDS011;5382;42.136;24.796;2023-02-23T15:15:19;18.38;;;13.60;;
10667;SDS011;5382;42.136;24.796;2023-02-23T15:17:49;33.90;;;13.93;;
10667;SDS011;5382;42.136;24.796;2023-02-23T15:20:19;20.02;;;13.63;;
10667;SDS011;5382;42.136;24.796;2023-02-23T15:22:53;16.20;;;9.90;;
10667;SDS011;5382;42.136;24.796;2023-02-23T15:25:25;14.82;;;10.38;;
10667;SDS011;5382;42.136;24.796;2023-02-23T15:27:59;12.65;;;9.82;;